Kilcolgan, Ireland
Current Conditions -  °F | °C
As of 2:00 AM on Friday 19 Dec 2014 (Local Time) from EINN Reporting Station
Broken Clouds Broken Clouds  
Wind Chill: 38°   Ceiling: 3000
Heat Index: 45°   Visibility: 6mi
Dew Point: 37°   Wind: 14mph
Humidity: 76%   Direction: 230°SW
Pressure: 29.85"   Gusts: NA
Location:  53.2°N, 8.87°W
Report Text: EINN 190200Z 23012KT 9999 FEW015 BKN030 07/03 Q1011 NOSIG
Loading
Personal Weather Stations






























Interactive Weather Map New forecast layout! Learn more

10-Day Weather Forecast

Advertisements
Track Severe Weather on mobile